EZY94JP LSZH-EGCC
Flight info
| Callsign | EZY94JP |
|---|---|
| Flight time | 1h 32m |
| Altitude | 34000 |
| Route | VEBIT T10 TORPA DCT REKLA DCT RLP DCT ROTSI DCT KOTUN DCT AMAXA DCT VESAN DCT RATUK DCT SOVAT L613 SANDY UN57 WELIN T420 ELVOS |
| Aircraft | A320/M-SDE2E3FGHIJ1RWXYZ/LB1 |
Departure
| Time | 2026-05-05 06:58 |
|---|---|
| Airport | Zürich Airport (LSZH) |
Arrival
| Time | 2026-05-05 08:30 |
|---|---|
| Airport | Manchester Airport (EGCC) |
| Time | Latitude | Longitude | Altitude | Speed | Heading |
|---|---|---|---|---|---|
| 2026-05-05 06:23 | 47.46156 | 8.55683 | 1399 ft | 0 kts | 187° |
| 2026-05-05 06:47 | 47.46157 | 8.55683 | 1399 ft | 1 kts | 187° |
| 2026-05-05 06:47 | 47.46171 | 8.55685 | 1399 ft | 2 kts | 187° |
| 2026-05-05 06:47 | 47.46186 | 8.55688 | 1399 ft | 2 kts | 187° |
| 2026-05-05 06:47 | 47.46201 | 8.55691 | 1399 ft | 2 kts | 187° |
| 2026-05-05 06:48 | 47.46216 | 8.55693 | 1398 ft | 2 kts | 187° |
| 2026-05-05 06:48 | 47.46231 | 8.55696 | 1398 ft | 1 kts | 177° |
| 2026-05-05 06:48 | 47.46242 | 8.55685 | 1398 ft | 2 kts | 112° |
| 2026-05-05 06:48 | 47.46243 | 8.55663 | 1398 ft | 2 kts | 92° |
| 2026-05-05 06:49 | 47.46244 | 8.55654 | 1398 ft | 0 kts | 99° |
| 2026-05-05 06:51 | 47.46243 | 8.55656 | 1398 ft | 0 kts | 98° |
| 2026-05-05 06:51 | 47.46242 | 8.55675 | 1398 ft | 5 kts | 97° |
| 2026-05-05 06:52 | 47.46237 | 8.55734 | 1399 ft | 5 kts | 97° |
| 2026-05-05 06:52 | 47.46233 | 8.55790 | 1400 ft | 5 kts | 95° |
| 2026-05-05 06:52 | 47.46231 | 8.55845 | 1400 ft | 5 kts | 95° |
| 2026-05-05 06:52 | 47.46228 | 8.55901 | 1401 ft | 5 kts | 95° |
| 2026-05-05 06:53 | 47.46222 | 8.55959 | 1402 ft | 6 kts | 110° |
| 2026-05-05 06:53 | 47.46190 | 8.56019 | 1403 ft | 7 kts | 137° |
| 2026-05-05 06:53 | 47.46149 | 8.56075 | 1404 ft | 8 kts | 137° |
| 2026-05-05 06:53 | 47.46108 | 8.56132 | 1405 ft | 7 kts | 137° |
| 2026-05-05 06:54 | 47.46070 | 8.56183 | 1407 ft | 6 kts | 137° |
| 2026-05-05 06:54 | 47.46035 | 8.56230 | 1408 ft | 6 kts | 137° |
| 2026-05-05 06:54 | 47.45996 | 8.56284 | 1408 ft | 8 kts | 138° |
| 2026-05-05 06:54 | 47.45944 | 8.56353 | 1409 ft | 10 kts | 138° |
| 2026-05-05 06:55 | 47.45892 | 8.56422 | 1411 ft | 9 kts | 137° |
| 2026-05-05 06:55 | 47.45844 | 8.56489 | 1413 ft | 8 kts | 137° |
| 2026-05-05 06:55 | 47.45806 | 8.56553 | 1415 ft | 7 kts | 116° |
| 2026-05-05 06:55 | 47.45794 | 8.56647 | 1416 ft | 10 kts | 96° |
| 2026-05-05 06:56 | 47.45786 | 8.56748 | 1418 ft | 9 kts | 96° |
| 2026-05-05 06:56 | 47.45779 | 8.56841 | 1420 ft | 8 kts | 96° |
| 2026-05-05 06:56 | 47.45773 | 8.56925 | 1421 ft | 7 kts | 96° |
| 2026-05-05 06:56 | 47.45758 | 8.57001 | 1422 ft | 7 kts | 121° |
| 2026-05-05 06:57 | 47.45714 | 8.57035 | 1423 ft | 7 kts | 185° |
| 2026-05-05 06:57 | 47.45667 | 8.57013 | 1423 ft | 5 kts | 240° |
| 2026-05-05 06:57 | 47.45669 | 8.56924 | 1422 ft | 20 kts | 277° |
| 2026-05-05 06:57 | 47.45710 | 8.56350 | 1412 ft | 91 kts | 276° |
| 2026-05-05 06:58 | 47.45799 | 8.55095 | 1394 ft | 151 kts | 276° |
| 2026-05-05 06:58 | 47.45925 | 8.53386 | 1697 ft | 173 kts | 277° |
| 2026-05-05 06:58 | 47.46055 | 8.51617 | 2287 ft | 178 kts | 276° |
| 2026-05-05 06:58 | 47.46176 | 8.49838 | 3020 ft | 177 kts | 276° |
| 2026-05-05 06:59 | 47.46229 | 8.47986 | 3498 ft | 186 kts | 261° |
| 2026-05-05 06:59 | 47.45657 | 8.46247 | 3801 ft | 201 kts | 225° |
| 2026-05-05 06:59 | 47.44529 | 8.44914 | 4140 ft | 216 kts | 220° |
| 2026-05-05 06:59 | 47.43446 | 8.43226 | 4461 ft | 235 kts | 230° |
| 2026-05-05 07:00 | 47.42368 | 8.41274 | 4866 ft | 251 kts | 232° |
| 2026-05-05 07:00 | 47.41289 | 8.39205 | 5389 ft | 263 kts | 233° |
| 2026-05-05 07:00 | 47.40162 | 8.37000 | 5936 ft | 275 kts | 233° |
| 2026-05-05 07:00 | 47.39008 | 8.34728 | 6705 ft | 278 kts | 232° |
| 2026-05-05 07:01 | 47.37952 | 8.32350 | 7477 ft | 281 kts | 239° |
| 2026-05-05 07:01 | 47.37062 | 8.29762 | 8237 ft | 285 kts | 244° |
| 2026-05-05 07:01 | 47.36221 | 8.27120 | 8995 ft | 287 kts | 242° |
| 2026-05-05 07:01 | 47.35322 | 8.24506 | 9791 ft | 290 kts | 242° |
| 2026-05-05 07:02 | 47.34398 | 8.21842 | 10475 ft | 296 kts | 241° |
| 2026-05-05 07:02 | 47.33428 | 8.19087 | 10977 ft | 308 kts | 240° |
| 2026-05-05 07:02 | 47.32423 | 8.16252 | 11735 ft | 311 kts | 240° |
| 2026-05-05 07:02 | 47.31432 | 8.13472 | 12428 ft | 312 kts | 240° |
| 2026-05-05 07:03 | 47.30432 | 8.10656 | 13121 ft | 314 kts | 240° |
| 2026-05-05 07:03 | 47.29415 | 8.07797 | 13828 ft | 316 kts | 240° |
| 2026-05-05 07:03 | 47.28400 | 8.04943 | 14442 ft | 319 kts | 240° |
| 2026-05-05 07:03 | 47.27477 | 8.01979 | 15090 ft | 323 kts | 250° |
| 2026-05-05 07:04 | 47.27101 | 7.98694 | 15682 ft | 331 kts | 266° |
| 2026-05-05 07:04 | 47.27291 | 7.95318 | 16229 ft | 338 kts | 275° |
| 2026-05-05 07:04 | 47.27636 | 7.91868 | 16807 ft | 342 kts | 275° |
| 2026-05-05 07:04 | 47.27993 | 7.88420 | 17371 ft | 345 kts | 275° |
| 2026-05-05 07:05 | 47.28348 | 7.84893 | 17945 ft | 347 kts | 275° |
| 2026-05-05 07:05 | 47.28692 | 7.81397 | 18516 ft | 349 kts | 275° |
| 2026-05-05 07:05 | 47.29030 | 7.77869 | 19054 ft | 352 kts | 275° |
| 2026-05-05 07:05 | 47.29370 | 7.74304 | 19601 ft | 354 kts | 274° |
| 2026-05-05 07:06 | 47.29710 | 7.70681 | 20135 ft | 357 kts | 274° |
| 2026-05-05 07:06 | 47.30051 | 7.67078 | 20653 ft | 360 kts | 275° |
| 2026-05-05 07:06 | 47.30498 | 7.63440 | 21148 ft | 364 kts | 279° |
| 2026-05-05 07:06 | 47.31125 | 7.59789 | 21627 ft | 369 kts | 283° |
| 2026-05-05 07:07 | 47.31894 | 7.56150 | 22094 ft | 373 kts | 285° |
| 2026-05-05 07:07 | 47.32690 | 7.52516 | 22570 ft | 376 kts | 285° |
| 2026-05-05 07:07 | 47.33501 | 7.48834 | 23023 ft | 379 kts | 285° |
| 2026-05-05 07:07 | 47.34309 | 7.45131 | 23474 ft | 381 kts | 284° |
| 2026-05-05 07:08 | 47.35121 | 7.41401 | 23917 ft | 385 kts | 284° |
| 2026-05-05 07:08 | 47.35933 | 7.37656 | 24333 ft | 388 kts | 284° |
| 2026-05-05 07:08 | 47.36751 | 7.33864 | 24771 ft | 390 kts | 284° |
| 2026-05-05 07:08 | 47.37575 | 7.30047 | 25198 ft | 393 kts | 283° |
| 2026-05-05 07:09 | 47.38406 | 7.26184 | 25615 ft | 395 kts | 283° |
| 2026-05-05 07:09 | 47.39231 | 7.22338 | 26026 ft | 398 kts | 283° |
| 2026-05-05 07:09 | 47.40062 | 7.18450 | 26419 ft | 400 kts | 283° |
| 2026-05-05 07:09 | 47.40834 | 7.14469 | 26809 ft | 401 kts | 279° |
| 2026-05-05 07:10 | 47.41455 | 7.10489 | 27193 ft | 403 kts | 278° |
| 2026-05-05 07:10 | 47.42054 | 7.06425 | 27578 ft | 405 kts | 278° |
| 2026-05-05 07:10 | 47.42648 | 7.02338 | 27921 ft | 408 kts | 278° |
| 2026-05-05 07:10 | 47.43248 | 6.98225 | 28242 ft | 411 kts | 277° |
| 2026-05-05 07:11 | 47.43848 | 6.94107 | 28578 ft | 414 kts | 278° |
| 2026-05-05 07:11 | 47.44455 | 6.89948 | 28923 ft | 416 kts | 277° |
| 2026-05-05 07:11 | 47.45065 | 6.85761 | 29240 ft | 418 kts | 277° |
| 2026-05-05 07:11 | 47.45674 | 6.81553 | 29562 ft | 421 kts | 277° |
| 2026-05-05 07:12 | 47.46290 | 6.77292 | 29885 ft | 422 kts | 277° |
| 2026-05-05 07:12 | 47.46905 | 6.73022 | 30171 ft | 425 kts | 277° |
| 2026-05-05 07:12 | 47.47519 | 6.68747 | 30465 ft | 427 kts | 276° |
| 2026-05-05 07:12 | 47.48016 | 6.64491 | 30741 ft | 426 kts | 273° |
| 2026-05-05 07:13 | 47.48369 | 6.60133 | 30984 ft | 428 kts | 271° |
| 2026-05-05 07:13 | 47.48683 | 6.55755 | 31236 ft | 430 kts | 271° |
| 2026-05-05 07:13 | 47.48993 | 6.51364 | 31503 ft | 431 kts | 271° |
| 2026-05-05 07:13 | 47.49303 | 6.46959 | 31771 ft | 433 kts | 270° |
| 2026-05-05 07:14 | 47.49618 | 6.42499 | 32038 ft | 434 kts | 270° |
| 2026-05-05 07:14 | 47.49927 | 6.38093 | 32298 ft | 435 kts | 271° |
| 2026-05-05 07:14 | 47.50240 | 6.33641 | 32545 ft | 436 kts | 270° |
| 2026-05-05 07:14 | 47.50551 | 6.29200 | 32781 ft | 437 kts | 270° |
| 2026-05-05 07:15 | 47.50863 | 6.24701 | 33003 ft | 439 kts | 270° |
| 2026-05-05 07:15 | 47.51173 | 6.20222 | 33217 ft | 440 kts | 269° |
| 2026-05-05 07:15 | 47.51486 | 6.15713 | 33452 ft | 441 kts | 269° |
| 2026-05-05 07:15 | 47.51793 | 6.11226 | 33654 ft | 442 kts | 269° |
| 2026-05-05 07:16 | 47.52103 | 6.06674 | 33818 ft | 444 kts | 269° |
| 2026-05-05 07:16 | 47.52408 | 6.02148 | 34005 ft | 445 kts | 269° |
| 2026-05-05 07:16 | 47.52734 | 5.97615 | 34172 ft | 448 kts | 272° |
| 2026-05-05 07:16 | 47.53321 | 5.93056 | 34324 ft | 454 kts | 278° |
| 2026-05-05 07:17 | 47.54239 | 5.88622 | 34583 ft | 458 kts | 284° |
| 2026-05-05 07:17 | 47.55496 | 5.84292 | 34876 ft | 460 kts | 290° |
| 2026-05-05 07:17 | 47.57077 | 5.80148 | 35063 ft | 464 kts | 297° |
| 2026-05-05 07:17 | 47.58954 | 5.76289 | 35203 ft | 469 kts | 304° |
| 2026-05-05 07:18 | 47.61121 | 5.72630 | 35395 ft | 469 kts | 308° |
| 2026-05-05 07:18 | 47.63344 | 5.69085 | 35601 ft | 467 kts | 309° |
| 2026-05-05 07:18 | 47.65537 | 5.65615 | 35725 ft | 466 kts | 309° |
| 2026-05-05 07:19 | 47.69938 | 5.58584 | 35860 ft | 467 kts | 308° |
| 2026-05-05 07:19 | 47.74341 | 5.51476 | 35874 ft | 468 kts | 308° |
| 2026-05-05 07:20 | 47.78721 | 5.44367 | 35865 ft | 469 kts | 308° |
| 2026-05-05 07:20 | 47.83115 | 5.37209 | 35870 ft | 469 kts | 308° |
| 2026-05-05 07:21 | 47.87490 | 5.30063 | 35874 ft | 468 kts | 308° |
| 2026-05-05 07:21 | 47.91851 | 5.22917 | 35879 ft | 467 kts | 307° |
| 2026-05-05 07:22 | 47.96211 | 5.15744 | 35878 ft | 468 kts | 307° |
| 2026-05-05 07:22 | 48.00554 | 5.08584 | 35879 ft | 469 kts | 307° |
| 2026-05-05 07:23 | 48.04950 | 5.01317 | 35873 ft | 468 kts | 307° |
| 2026-05-05 07:23 | 48.09281 | 4.94135 | 35864 ft | 468 kts | 307° |
| 2026-05-05 07:24 | 48.13637 | 4.86890 | 35864 ft | 469 kts | 307° |
| 2026-05-05 07:24 | 48.17977 | 4.79655 | 35858 ft | 468 kts | 307° |
| 2026-05-05 07:25 | 48.22315 | 4.72402 | 35860 ft | 468 kts | 308° |
| 2026-05-05 07:25 | 48.26662 | 4.65116 | 35857 ft | 468 kts | 307° |
| 2026-05-05 07:26 | 48.30978 | 4.57857 | 35851 ft | 468 kts | 308° |
| 2026-05-05 07:26 | 48.35319 | 4.50542 | 35853 ft | 469 kts | 307° |
| 2026-05-05 07:27 | 48.39698 | 4.43141 | 35850 ft | 469 kts | 307° |
| 2026-05-05 07:27 | 48.44021 | 4.35811 | 35855 ft | 469 kts | 308° |
| 2026-05-05 07:28 | 48.48337 | 4.28475 | 35845 ft | 468 kts | 307° |
| 2026-05-05 07:28 | 48.52680 | 4.21069 | 35855 ft | 469 kts | 307° |
| 2026-05-05 07:29 | 48.56977 | 4.13726 | 35862 ft | 468 kts | 307° |
| 2026-05-05 07:29 | 48.61275 | 4.06359 | 35851 ft | 467 kts | 307° |
| 2026-05-05 07:30 | 48.65568 | 3.98978 | 35849 ft | 467 kts | 307° |
| 2026-05-05 07:30 | 48.72266 | 3.88061 | 35862 ft | 471 kts | 313° |
| 2026-05-05 07:31 | 48.77323 | 3.81713 | 35858 ft | 475 kts | 320° |
| 2026-05-05 07:31 | 48.82679 | 3.75854 | 35869 ft | 475 kts | 321° |
| 2026-05-05 07:32 | 48.88059 | 3.70011 | 35880 ft | 475 kts | 321° |
| 2026-05-05 07:32 | 48.93475 | 3.64086 | 35874 ft | 475 kts | 321° |
| 2026-05-05 07:33 | 48.98867 | 3.58153 | 35871 ft | 475 kts | 321° |
| 2026-05-05 07:33 | 49.04216 | 3.52252 | 35865 ft | 475 kts | 321° |
| 2026-05-05 07:34 | 49.09586 | 3.46306 | 35860 ft | 474 kts | 321° |
| 2026-05-05 07:34 | 49.14934 | 3.40369 | 35856 ft | 474 kts | 321° |
| 2026-05-05 07:35 | 49.20250 | 3.34452 | 35858 ft | 474 kts | 320° |
| 2026-05-05 07:35 | 49.25576 | 3.28511 | 35862 ft | 472 kts | 320° |
| 2026-05-05 07:36 | 49.30890 | 3.22561 | 35860 ft | 473 kts | 320° |
| 2026-05-05 07:36 | 49.36208 | 3.16594 | 35860 ft | 472 kts | 320° |
| 2026-05-05 07:37 | 49.41489 | 3.10652 | 35863 ft | 472 kts | 320° |
| 2026-05-05 07:37 | 49.46792 | 3.04667 | 35863 ft | 472 kts | 320° |
| 2026-05-05 07:38 | 49.52059 | 2.98708 | 35861 ft | 471 kts | 320° |
| 2026-05-05 07:38 | 49.57362 | 2.92690 | 35865 ft | 470 kts | 320° |
| 2026-05-05 07:39 | 49.62631 | 2.86698 | 35871 ft | 470 kts | 320° |
| 2026-05-05 07:39 | 49.67860 | 2.80735 | 35870 ft | 470 kts | 320° |
| 2026-05-05 07:40 | 49.73138 | 2.74695 | 35877 ft | 469 kts | 320° |
| 2026-05-05 07:40 | 49.78347 | 2.68728 | 35883 ft | 469 kts | 320° |
| 2026-05-05 07:41 | 49.83661 | 2.62832 | 35888 ft | 469 kts | 321° |
| 2026-05-05 07:41 | 49.88955 | 2.56974 | 35887 ft | 469 kts | 321° |
| 2026-05-05 07:42 | 49.94252 | 2.51086 | 35898 ft | 469 kts | 321° |
| 2026-05-05 07:42 | 49.99531 | 2.45192 | 35904 ft | 468 kts | 321° |
| 2026-05-05 07:43 | 50.04773 | 2.39319 | 35895 ft | 468 kts | 321° |
| 2026-05-05 07:43 | 50.10017 | 2.33429 | 35890 ft | 467 kts | 320° |
| 2026-05-05 07:44 | 50.15323 | 2.27451 | 35891 ft | 466 kts | 320° |
| 2026-05-05 07:44 | 50.20547 | 2.21551 | 35894 ft | 465 kts | 320° |
| 2026-05-05 07:45 | 50.25787 | 2.15617 | 35891 ft | 465 kts | 320° |
| 2026-05-05 07:45 | 50.31011 | 2.09685 | 35895 ft | 464 kts | 320° |
| 2026-05-05 07:46 | 50.36219 | 2.03729 | 35896 ft | 463 kts | 319° |
| 2026-05-05 07:46 | 50.41139 | 1.97340 | 35897 ft | 461 kts | 315° |
| 2026-05-05 07:47 | 50.45946 | 1.90759 | 35894 ft | 460 kts | 315° |
| 2026-05-05 07:47 | 50.50747 | 1.84179 | 35902 ft | 459 kts | 316° |
| 2026-05-05 07:48 | 50.55539 | 1.77611 | 35906 ft | 459 kts | 316° |
| 2026-05-05 07:48 | 50.60303 | 1.71069 | 35912 ft | 458 kts | 316° |
| 2026-05-05 07:49 | 50.65108 | 1.64449 | 35921 ft | 457 kts | 316° |
| 2026-05-05 07:49 | 50.69859 | 1.57881 | 35924 ft | 456 kts | 316° |
| 2026-05-05 07:50 | 50.74640 | 1.51250 | 35926 ft | 456 kts | 316° |
| 2026-05-05 07:50 | 50.79369 | 1.44677 | 35927 ft | 455 kts | 316° |
| 2026-05-05 07:51 | 50.84124 | 1.38058 | 35930 ft | 455 kts | 316° |
| 2026-05-05 07:51 | 50.88863 | 1.31434 | 35935 ft | 454 kts | 316° |
| 2026-05-05 07:52 | 50.93595 | 1.24806 | 35936 ft | 453 kts | 316° |
| 2026-05-05 07:52 | 50.98273 | 1.18236 | 35944 ft | 453 kts | 316° |
| 2026-05-05 07:53 | 51.02997 | 1.11578 | 35953 ft | 452 kts | 316° |
| 2026-05-05 07:53 | 51.07639 | 1.04880 | 35957 ft | 451 kts | 314° |
| 2026-05-05 07:54 | 51.09882 | 1.01433 | 36240 ft | 451 kts | 314° |
| 2026-05-05 07:54 | 51.12129 | 0.97943 | 36116 ft | 450 kts | 314° |
| 2026-05-05 07:54 | 51.16599 | 0.90985 | 36004 ft | 449 kts | 314° |
| 2026-05-05 07:55 | 51.21078 | 0.84006 | 35970 ft | 450 kts | 314° |
| 2026-05-05 07:55 | 51.25528 | 0.77053 | 35964 ft | 450 kts | 314° |
| 2026-05-05 07:56 | 51.29990 | 0.70065 | 35962 ft | 450 kts | 314° |
| 2026-05-05 07:56 | 51.34454 | 0.63057 | 35967 ft | 451 kts | 314° |
| 2026-05-05 07:57 | 51.38887 | 0.56075 | 35968 ft | 451 kts | 314° |
| 2026-05-05 07:57 | 51.43350 | 0.49025 | 35971 ft | 450 kts | 314° |
| 2026-05-05 07:58 | 51.47794 | 0.41988 | 35972 ft | 450 kts | 314° |
| 2026-05-05 07:58 | 51.52237 | 0.34931 | 35975 ft | 450 kts | 313° |
| 2026-05-05 07:59 | 51.56691 | 0.27833 | 35971 ft | 450 kts | 314° |
| 2026-05-05 07:59 | 51.61136 | 0.20730 | 35974 ft | 450 kts | 314° |
| 2026-05-05 08:00 | 51.65576 | 0.13601 | 35970 ft | 450 kts | 313° |
| 2026-05-05 08:00 | 51.69954 | 0.06426 | 35967 ft | 450 kts | 313° |
| 2026-05-05 08:01 | 51.74336 | -0.00792 | 35958 ft | 450 kts | 313° |
| 2026-05-05 08:01 | 51.78715 | -0.08021 | 35952 ft | 450 kts | 313° |
| 2026-05-05 08:02 | 51.83070 | -0.15227 | 35954 ft | 451 kts | 313° |
| 2026-05-05 08:02 | 51.87434 | -0.22467 | 35965 ft | 451 kts | 313° |
| 2026-05-05 08:03 | 51.91829 | -0.29781 | 35667 ft | 454 kts | 313° |
| 2026-05-05 08:03 | 51.94027 | -0.33447 | 35029 ft | 457 kts | 313° |
| 2026-05-05 08:03 | 51.96233 | -0.37130 | 34377 ft | 459 kts | 313° |
| 2026-05-05 08:04 | 51.98451 | -0.40832 | 33690 ft | 461 kts | 313° |
| 2026-05-05 08:04 | 52.00684 | -0.44565 | 32993 ft | 459 kts | 313° |
| 2026-05-05 08:04 | 52.02893 | -0.48265 | 32521 ft | 453 kts | 312° |
| 2026-05-05 08:04 | 52.05058 | -0.51903 | 32031 ft | 447 kts | 312° |
| 2026-05-05 08:05 | 52.07164 | -0.55449 | 31583 ft | 440 kts | 312° |
| 2026-05-05 08:05 | 52.09301 | -0.59053 | 31126 ft | 434 kts | 312° |
| 2026-05-05 08:05 | 52.11382 | -0.62564 | 30628 ft | 429 kts | 311° |
| 2026-05-05 08:05 | 52.13431 | -0.66032 | 30139 ft | 423 kts | 311° |
| 2026-05-05 08:06 | 52.15441 | -0.69438 | 29672 ft | 417 kts | 311° |
| 2026-05-05 08:06 | 52.17427 | -0.72806 | 29208 ft | 411 kts | 311° |
| 2026-05-05 08:06 | 52.19389 | -0.76139 | 28764 ft | 405 kts | 311° |
| 2026-05-05 08:06 | 52.21296 | -0.79382 | 28334 ft | 400 kts | 311° |
| 2026-05-05 08:07 | 52.23238 | -0.82593 | 27886 ft | 396 kts | 314° |
| 2026-05-05 08:07 | 52.25314 | -0.85496 | 27445 ft | 393 kts | 320° |
| 2026-05-05 08:07 | 52.27539 | -0.88053 | 27015 ft | 389 kts | 325° |
| 2026-05-05 08:07 | 52.29809 | -0.90350 | 26578 ft | 385 kts | 327° |
| 2026-05-05 08:08 | 52.32085 | -0.92592 | 26151 ft | 381 kts | 327° |
| 2026-05-05 08:08 | 52.34330 | -0.94805 | 25736 ft | 378 kts | 327° |
| 2026-05-05 08:08 | 52.36572 | -0.97024 | 25300 ft | 374 kts | 327° |
| 2026-05-05 08:08 | 52.38782 | -0.99220 | 24878 ft | 371 kts | 326° |
| 2026-05-05 08:09 | 52.40974 | -1.01406 | 24459 ft | 368 kts | 326° |
| 2026-05-05 08:09 | 52.43155 | -1.03590 | 24039 ft | 365 kts | 326° |
| 2026-05-05 08:09 | 52.45323 | -1.05763 | 23615 ft | 363 kts | 326° |
| 2026-05-05 08:09 | 52.47440 | -1.07886 | 23200 ft | 361 kts | 326° |
| 2026-05-05 08:10 | 52.49572 | -1.10027 | 22780 ft | 359 kts | 326° |
| 2026-05-05 08:10 | 52.51701 | -1.12170 | 22358 ft | 357 kts | 326° |
| 2026-05-05 08:10 | 52.53799 | -1.14281 | 21945 ft | 355 kts | 326° |
| 2026-05-05 08:10 | 52.55885 | -1.16382 | 21533 ft | 353 kts | 326° |
| 2026-05-05 08:11 | 52.57960 | -1.18475 | 21127 ft | 351 kts | 326° |
| 2026-05-05 08:11 | 52.60044 | -1.20577 | 20718 ft | 349 kts | 326° |
| 2026-05-05 08:11 | 52.62100 | -1.22652 | 20310 ft | 347 kts | 326° |
| 2026-05-05 08:11 | 52.64125 | -1.24699 | 20016 ft | 341 kts | 326° |
| 2026-05-05 08:12 | 52.66111 | -1.26710 | 19990 ft | 326 kts | 326° |
| 2026-05-05 08:12 | 52.67983 | -1.28605 | 19986 ft | 311 kts | 326° |
| 2026-05-05 08:12 | 52.69781 | -1.30426 | 19984 ft | 296 kts | 326° |
| 2026-05-05 08:12 | 52.71529 | -1.32205 | 19674 ft | 297 kts | 326° |
| 2026-05-05 08:13 | 52.73311 | -1.34024 | 19159 ft | 304 kts | 326° |
| 2026-05-05 08:13 | 52.75165 | -1.35922 | 18647 ft | 325 kts | 326° |
| 2026-05-05 08:13 | 52.77114 | -1.37913 | 18194 ft | 328 kts | 326° |
| 2026-05-05 08:13 | 52.79038 | -1.39876 | 17776 ft | 326 kts | 326° |
| 2026-05-05 08:14 | 52.80956 | -1.41832 | 17440 ft | 322 kts | 326° |
| 2026-05-05 08:14 | 52.82836 | -1.43754 | 17090 ft | 319 kts | 326° |
| 2026-05-05 08:14 | 52.84718 | -1.45682 | 16718 ft | 316 kts | 326° |
| 2026-05-05 08:14 | 52.86565 | -1.47577 | 16350 ft | 314 kts | 326° |
| 2026-05-05 08:15 | 52.88416 | -1.49478 | 15987 ft | 311 kts | 326° |
| 2026-05-05 08:15 | 52.90246 | -1.51358 | 15621 ft | 309 kts | 326° |
| 2026-05-05 08:15 | 52.92042 | -1.53204 | 15273 ft | 306 kts | 327° |
| 2026-05-05 08:15 | 52.93850 | -1.55063 | 14922 ft | 303 kts | 327° |
| 2026-05-05 08:16 | 52.95610 | -1.56877 | 14581 ft | 300 kts | 327° |
| 2026-05-05 08:16 | 52.97388 | -1.58711 | 14210 ft | 297 kts | 327° |
| 2026-05-05 08:16 | 52.99114 | -1.60494 | 13843 ft | 295 kts | 327° |
| 2026-05-05 08:16 | 53.00854 | -1.62295 | 13452 ft | 294 kts | 327° |
| 2026-05-05 08:17 | 53.02582 | -1.64080 | 13070 ft | 292 kts | 327° |
| 2026-05-05 08:17 | 53.04306 | -1.65903 | 12684 ft | 290 kts | 323° |
| 2026-05-05 08:17 | 53.05848 | -1.68007 | 12310 ft | 288 kts | 315° |
| 2026-05-05 08:17 | 53.07202 | -1.70426 | 11939 ft | 286 kts | 310° |
| 2026-05-05 08:18 | 53.08501 | -1.72943 | 11556 ft | 284 kts | 310° |
| 2026-05-05 08:18 | 53.09768 | -1.75423 | 11162 ft | 284 kts | 310° |
| 2026-05-05 08:18 | 53.11064 | -1.77951 | 10719 ft | 284 kts | 310° |
| 2026-05-05 08:18 | 53.12323 | -1.80401 | 10383 ft | 281 kts | 310° |
| 2026-05-05 08:19 | 53.13594 | -1.82873 | 10016 ft | 280 kts | 310° |
| 2026-05-05 08:19 | 53.14856 | -1.85329 | 9648 ft | 278 kts | 310° |
| 2026-05-05 08:19 | 53.16117 | -1.87783 | 9287 ft | 277 kts | 310° |
| 2026-05-05 08:19 | 53.17359 | -1.90202 | 8930 ft | 275 kts | 310° |
| 2026-05-05 08:20 | 53.18586 | -1.92597 | 8577 ft | 274 kts | 310° |
| 2026-05-05 08:20 | 53.19817 | -1.95000 | 8230 ft | 273 kts | 310° |
| 2026-05-05 08:20 | 53.21046 | -1.97403 | 8082 ft | 265 kts | 310° |
| 2026-05-05 08:20 | 53.22340 | -1.99416 | 7992 ft | 252 kts | 331° |
| 2026-05-05 08:21 | 53.24014 | -2.00170 | 7993 ft | 251 kts | 0° |
| 2026-05-05 08:21 | 53.25713 | -1.99451 | 7999 ft | 254 kts | 24° |
| 2026-05-05 08:21 | 53.27268 | -1.98035 | 7998 ft | 255 kts | 29° |
| 2026-05-05 08:21 | 53.28753 | -1.96527 | 7988 ft | 246 kts | 30° |
| 2026-05-05 08:22 | 53.30200 | -1.95029 | 7988 ft | 244 kts | 30° |
| 2026-05-05 08:22 | 53.31632 | -1.93541 | 7987 ft | 243 kts | 30° |
| 2026-05-05 08:22 | 53.33091 | -1.92019 | 7989 ft | 243 kts | 30° |
| 2026-05-05 08:22 | 53.34581 | -1.90721 | 7980 ft | 241 kts | 13° |
| 2026-05-05 08:23 | 53.36211 | -1.90311 | 7862 ft | 236 kts | 2° |
| 2026-05-05 08:23 | 53.37820 | -1.90178 | 7506 ft | 238 kts | 0° |
| 2026-05-05 08:23 | 53.39514 | -1.90099 | 7170 ft | 238 kts | 0° |
| 2026-05-05 08:23 | 53.41143 | -1.90039 | 6868 ft | 237 kts | 0° |
| 2026-05-05 08:24 | 53.42803 | -1.89986 | 6564 ft | 236 kts | 0° |
| 2026-05-05 08:24 | 53.44440 | -1.89940 | 6271 ft | 235 kts | 0° |
| 2026-05-05 08:24 | 53.46067 | -1.89899 | 5992 ft | 233 kts | 0° |
| 2026-05-05 08:24 | 53.47666 | -1.89863 | 5722 ft | 231 kts | 0° |
| 2026-05-05 08:25 | 53.49265 | -1.89893 | 5442 ft | 229 kts | 351° |
| 2026-05-05 08:25 | 53.50666 | -1.91017 | 5097 ft | 229 kts | 312° |
| 2026-05-05 08:25 | 53.51349 | -1.93420 | 4807 ft | 231 kts | 280° |
| 2026-05-05 08:25 | 53.51212 | -1.96096 | 4503 ft | 234 kts | 251° |
| 2026-05-05 08:26 | 53.50297 | -1.98362 | 4184 ft | 238 kts | 223° |
| 2026-05-05 08:26 | 53.49005 | -2.00042 | 3902 ft | 238 kts | 219° |
| 2026-05-05 08:26 | 53.47701 | -2.01787 | 3603 ft | 236 kts | 227° |
| 2026-05-05 08:26 | 53.46658 | -2.03840 | 3452 ft | 227 kts | 236° |
| 2026-05-05 08:27 | 53.45731 | -2.05962 | 3259 ft | 225 kts | 236° |
| 2026-05-05 08:27 | 53.44777 | -2.08066 | 2958 ft | 226 kts | 235° |
| 2026-05-05 08:27 | 53.43800 | -2.10115 | 2648 ft | 221 kts | 234° |
| 2026-05-05 08:27 | 53.42861 | -2.12038 | 2353 ft | 211 kts | 234° |
| 2026-05-05 08:28 | 53.41951 | -2.13901 | 2154 ft | 196 kts | 234° |
| 2026-05-05 08:28 | 53.41114 | -2.15621 | 1894 ft | 185 kts | 234° |
| 2026-05-05 08:28 | 53.40326 | -2.17251 | 1612 ft | 176 kts | 234° |
| 2026-05-05 08:28 | 53.39582 | -2.18787 | 1362 ft | 166 kts | 234° |
| 2026-05-05 08:29 | 53.38876 | -2.20246 | 1136 ft | 154 kts | 234° |
| 2026-05-05 08:29 | 53.38236 | -2.21567 | 925 ft | 141 kts | 234° |
| 2026-05-05 08:29 | 53.37627 | -2.22818 | 671 ft | 136 kts | 233° |
| 2026-05-05 08:30 | 53.36427 | -2.25309 | 359 ft | 137 kts | 233° |
| 2026-05-05 08:30 | 53.35837 | -2.26532 | 268 ft | 127 kts | 232° |
| 2026-05-05 08:30 | 53.35388 | -2.27470 | 248 ft | 79 kts | 231° |
| 2026-05-05 08:30 | 53.35151 | -2.27953 | 238 ft | 28 kts | 231° |
| 2026-05-05 08:31 | 53.35099 | -2.28146 | 235 ft | 16 kts | 299° |
| 2026-05-05 08:31 | 53.35178 | -2.28199 | 235 ft | 9 kts | 2° |
| 2026-05-05 08:31 | 53.35221 | -2.28194 | 236 ft | 6 kts | 5° |
| 2026-05-05 08:31 | 53.35266 | -2.28188 | 236 ft | 6 kts | 5° |
| 2026-05-05 08:32 | 53.35273 | -2.28187 | 236 ft | 0 kts | 5° |
| 2026-05-05 08:32 | 53.35282 | -2.28185 | 237 ft | 3 kts | 5° |
| 2026-05-05 08:32 | 53.35323 | -2.28177 | 237 ft | 7 kts | 8° |
| 2026-05-05 08:32 | 53.35382 | -2.28166 | 238 ft | 9 kts | 6° |
| 2026-05-05 08:33 | 53.35458 | -2.28149 | 239 ft | 12 kts | 15° |
| 2026-05-05 08:33 | 53.35534 | -2.28079 | 239 ft | 11 kts | 47° |
| 2026-05-05 08:33 | 53.35589 | -2.27979 | 241 ft | 12 kts | 47° |
| 2026-05-05 08:33 | 53.35634 | -2.27895 | 241 ft | 9 kts | 49° |
| 2026-05-05 08:34 | 53.35670 | -2.27887 | 242 ft | 9 kts | 2° |
| 2026-05-05 08:34 | 53.35746 | -2.27875 | 242 ft | 12 kts | 6° |
| 2026-05-05 08:34 | 53.35837 | -2.27860 | 242 ft | 13 kts | 5° |
| 2026-05-05 08:34 | 53.35934 | -2.27846 | 242 ft | 14 kts | 6° |
| 2026-05-05 08:35 | 53.36034 | -2.27830 | 242 ft | 14 kts | 351° |
| 2026-05-05 08:35 | 53.36119 | -2.27937 | 239 ft | 16 kts | 313° |
| 2026-05-05 08:35 | 53.36208 | -2.28095 | 235 ft | 19 kts | 315° |
| 2026-05-05 08:35 | 53.36304 | -2.28252 | 230 ft | 19 kts | 315° |
| 2026-05-05 08:36 | 53.36404 | -2.28420 | 226 ft | 21 kts | 314° |
| 2026-05-05 08:36 | 53.36477 | -2.28564 | 224 ft | 10 kts | 302° |
| 2026-05-05 08:36 | 53.36533 | -2.28663 | 223 ft | 12 kts | 326° |
| 2026-05-05 08:36 | 53.36596 | -2.28767 | 223 ft | 13 kts | 296° |
| 2026-05-05 08:37 | 53.36634 | -2.28910 | 223 ft | 13 kts | 309° |
| 2026-05-05 08:37 | 53.36713 | -2.28989 | 223 ft | 13 kts | 323° |
| 2026-05-05 08:37 | 53.36787 | -2.29040 | 224 ft | 9 kts | 5° |
| 2026-05-05 08:37 | 53.36841 | -2.28988 | 224 ft | 9 kts | 39° |
| 2026-05-05 08:38 | 53.36888 | -2.28915 | 224 ft | 9 kts | 46° |
| 2026-05-05 08:38 | 53.36932 | -2.28837 | 224 ft | 9 kts | 47° |
| 2026-05-05 08:38 | 53.36945 | -2.28780 | 224 ft | 4 kts | 117° |
| 2026-05-05 08:38 | 53.36933 | -2.28756 | 224 ft | 1 kts | 130° |
| 2026-05-05 08:39 | 53.36927 | -2.28745 | 224 ft | 0 kts | 133° |
| 2026-05-05 08:39 | 53.36924 | -2.28740 | 224 ft | 0 kts | 133° |